sensor_id;sensor_type;location;lat;lon;timestamp;pressure;altitude;pressure_sealevel;temperature;humidity
56825;BME280;42705;50.326;18.772;2023-04-22T00:03:38;98335.14;;;11.02;40.77
56825;BME280;42705;50.326;18.772;2023-04-22T00:09:02;98333.49;;;10.99;40.75
56825;BME280;42705;50.326;18.772;2023-04-22T00:14:24;98333.01;;;10.97;41.06
56825;BME280;42705;50.326;18.772;2023-04-22T00:19:46;98332.80;;;10.94;40.86
56825;BME280;42705;50.326;18.772;2023-04-22T00:25:09;98338.46;;;10.91;40.79
56825;BME280;42705;50.326;18.772;2023-04-22T00:30:31;98335.61;;;10.88;40.96
56825;BME280;42705;50.326;18.772;2023-04-22T00:35:53;98331.50;;;10.83;41.43
56825;BME280;42705;50.326;18.772;2023-04-22T00:41:16;98329.20;;;10.80;41.84
56825;BME280;42705;50.326;18.772;2023-04-22T00:46:38;98330.01;;;10.75;41.80
56825;BME280;42705;50.326;18.772;2023-04-22T00:52:01;98326.86;;;10.69;41.82
56825;BME280;42705;50.326;18.772;2023-04-22T00:57:23;98328.55;;;10.64;42.14
56825;BME280;42705;50.326;18.772;2023-04-22T01:02:46;98333.54;;;10.61;42.15
56825;BME280;42705;50.326;18.772;2023-04-22T01:08:08;98330.87;;;10.58;42.15
56825;BME280;42705;50.326;18.772;2023-04-22T01:13:30;98335.02;;;10.55;42.19
56825;BME280;42705;50.326;18.772;2023-04-22T01:19:07;98336.70;;;10.50;42.44
56825;BME280;42705;50.326;18.772;2023-04-22T01:24:29;98336.65;;;10.43;42.49
56825;BME280;42705;50.326;18.772;2023-04-22T01:29:51;98338.16;;;10.35;42.75
56825;BME280;42705;50.326;18.772;2023-04-22T01:35:13;98335.73;;;10.29;42.69
56825;BME280;42705;50.326;18.772;2023-04-22T01:40:37;98343.01;;;10.24;43.10
56825;BME280;42705;50.326;18.772;2023-04-22T01:46:00;98337.92;;;10.17;43.25
56825;BME280;42705;50.326;18.772;2023-04-22T01:51:23;98345.13;;;10.08;43.64
56825;BME280;42705;50.326;18.772;2023-04-22T01:56:52;98344.27;;;10.00;43.97
56825;BME280;42705;50.326;18.772;2023-04-22T02:02:15;98342.23;;;9.92;44.30
56825;BME280;42705;50.326;18.772;2023-04-22T02:07:51;98334.85;;;9.79;44.40
56825;BME280;42705;50.326;18.772;2023-04-22T02:13:14;98338.81;;;9.69;44.22
56825;BME280;42705;50.326;18.772;2023-04-22T02:18:36;98336.91;;;9.63;44.51
56825;BME280;42705;50.326;18.772;2023-04-22T02:23:57;98333.07;;;9.56;44.60
56825;BME280;42705;50.326;18.772;2023-04-22T02:29:23;98333.34;;;9.50;44.71
56825;BME280;42705;50.326;18.772;2023-04-22T02:34:45;98334.36;;;9.47;45.02
56825;BME280;42705;50.326;18.772;2023-04-22T02:40:08;98332.60;;;9.45;45.43
56825;BME280;42705;50.326;18.772;2023-04-22T02:45:30;98334.40;;;9.42;45.63
56825;BME280;42705;50.326;18.772;2023-04-22T02:50:52;98329.66;;;9.41;45.80
56825;BME280;42705;50.326;18.772;2023-04-22T02:56:14;98328.42;;;9.39;45.85
56825;BME280;42705;50.326;18.772;2023-04-22T03:01:38;98329.57;;;9.36;45.79
56825;BME280;42705;50.326;18.772;2023-04-22T03:07:10;98330.59;;;9.32;46.07
56825;BME280;42705;50.326;18.772;2023-04-22T03:12:32;98332.73;;;9.27;46.29
56825;BME280;42705;50.326;18.772;2023-04-22T03:17:54;98334.30;;;9.21;46.44
56825;BME280;42705;50.326;18.772;2023-04-22T03:23:17;98339.86;;;9.16;46.55
56825;BME280;42705;50.326;18.772;2023-04-22T03:28:40;98339.97;;;9.08;46.77
56825;BME280;42705;50.326;18.772;2023-04-22T03:34:02;98346.05;;;9.00;47.38
56825;BME280;42705;50.326;18.772;2023-04-22T03:39:29;98348.77;;;8.89;47.94
56825;BME280;42705;50.326;18.772;2023-04-22T03:44:51;98348.69;;;8.75;48.15
56825;BME280;42705;50.326;18.772;2023-04-22T03:50:16;98351.11;;;8.55;48.41
56825;BME280;42705;50.326;18.772;2023-04-22T03:55:38;98354.62;;;8.41;48.84
56825;BME280;42705;50.326;18.772;2023-04-22T04:01:05;98353.90;;;8.33;49.24
56825;BME280;42705;50.326;18.772;2023-04-22T04:06:27;98353.98;;;8.26;49.48
56825;BME280;42705;50.326;18.772;2023-04-22T04:11:49;98352.32;;;8.21;49.75
56825;BME280;42705;50.326;18.772;2023-04-22T04:17:12;98354.40;;;8.19;49.93
56825;BME280;42705;50.326;18.772;2023-04-22T04:22:49;98353.73;;;8.18;50.34
56825;BME280;42705;50.326;18.772;2023-04-22T04:28:15;98346.52;;;8.23;50.61
56825;BME280;42705;50.326;18.772;2023-04-22T04:33:39;98345.98;;;8.28;50.61
56825;BME280;42705;50.326;18.772;2023-04-22T04:39:02;98352.54;;;8.35;50.31
56825;BME280;42705;50.326;18.772;2023-04-22T04:44:26;98358.30;;;8.43;50.17
56825;BME280;42705;50.326;18.772;2023-04-22T04:49:49;98357.34;;;8.53;50.09
56825;BME280;42705;50.326;18.772;2023-04-22T04:55:15;98362.64;;;8.62;50.30
56825;BME280;42705;50.326;18.772;2023-04-22T05:00:59;98359.73;;;8.74;50.35
56825;BME280;42705;50.326;18.772;2023-04-22T05:06:21;98364.17;;;8.86;50.34
56825;BME280;42705;50.326;18.772;2023-04-22T05:11:56;98363.48;;;8.96;50.10
56825;BME280;42705;50.326;18.772;2023-04-22T05:17:21;98356.90;;;9.06;50.10
56825;BME280;42705;50.326;18.772;2023-04-22T05:22:43;98353.47;;;9.19;50.16
56825;BME280;42705;50.326;18.772;2023-04-22T05:28:12;98355.16;;;9.32;50.13
56825;BME280;42705;50.326;18.772;2023-04-22T05:33:42;98356.27;;;9.48;50.35
56825;BME280;42705;50.326;18.772;2023-04-22T05:39:04;98357.91;;;9.63;50.46
56825;BME280;42705;50.326;18.772;2023-04-22T05:44:27;98355.66;;;9.78;50.21
56825;BME280;42705;50.326;18.772;2023-04-22T05:49:49;98360.62;;;9.91;49.99
56825;BME280;42705;50.326;18.772;2023-04-22T05:55:15;98358.84;;;10.07;49.75
56825;BME280;42705;50.326;18.772;2023-04-22T06:00:38;98357.69;;;10.24;49.59
56825;BME280;42705;50.326;18.772;2023-04-22T06:06:20;98364.10;;;10.42;49.56
56825;BME280;42705;50.326;18.772;2023-04-22T06:11:42;98368.79;;;10.60;49.15
56825;BME280;42705;50.326;18.772;2023-04-22T06:17:04;98367.90;;;10.77;49.18
56825;BME280;42705;50.326;18.772;2023-04-22T06:22:26;98366.92;;;10.95;48.63
56825;BME280;42705;50.326;18.772;2023-04-22T06:27:48;98366.16;;;11.11;49.04
56825;BME280;42705;50.326;18.772;2023-04-22T06:33:12;98364.84;;;11.29;48.71
56825;BME280;42705;50.326;18.772;2023-04-22T06:38:35;98364.48;;;11.49;48.10
56825;BME280;42705;50.326;18.772;2023-04-22T06:44:16;98366.94;;;11.71;48.04
56825;BME280;42705;50.326;18.772;2023-04-22T06:49:38;98365.98;;;11.91;47.55
56825;BME280;42705;50.326;18.772;2023-04-22T06:55:14;98366.66;;;12.12;47.24
56825;BME280;42705;50.326;18.772;2023-04-22T07:00:36;98365.61;;;12.30;46.98
56825;BME280;42705;50.326;18.772;2023-04-22T07:05:58;98370.02;;;12.49;46.72
56825;BME280;42705;50.326;18.772;2023-04-22T07:11:20;98367.23;;;12.68;46.31
56825;BME280;42705;50.326;18.772;2023-04-22T07:17:06;98368.98;;;12.87;45.95
56825;BME280;42705;50.326;18.772;2023-04-22T07:22:28;98371.82;;;13.06;45.79
56825;BME280;42705;50.326;18.772;2023-04-22T07:27:49;98372.06;;;13.24;45.33
56825;BME280;42705;50.326;18.772;2023-04-22T07:33:11;98367.65;;;13.42;44.90
56825;BME280;42705;50.326;18.772;2023-04-22T07:38:35;98361.42;;;13.60;44.18
56825;BME280;42705;50.326;18.772;2023-04-22T07:44:06;98364.67;;;13.77;43.53
56825;BME280;42705;50.326;18.772;2023-04-22T07:49:28;98367.04;;;13.96;42.71
56825;BME280;42705;50.326;18.772;2023-04-22T07:54:50;98368.82;;;14.15;42.21
56825;BME280;42705;50.326;18.772;2023-04-22T08:00:14;98365.37;;;14.30;41.27
56825;BME280;42705;50.326;18.772;2023-04-22T08:05:36;98362.54;;;14.42;40.55
56825;BME280;42705;50.326;18.772;2023-04-22T08:10:58;98362.54;;;14.55;40.12
56825;BME280;42705;50.326;18.772;2023-04-22T08:16:20;98360.94;;;14.73;39.59
56825;BME280;42705;50.326;18.772;2023-04-22T08:21:45;98360.47;;;14.92;39.00
56825;BME280;42705;50.326;18.772;2023-04-22T08:27:26;98357.70;;;15.06;38.29
56825;BME280;42705;50.326;18.772;2023-04-22T08:32:49;98355.16;;;15.21;37.43
56825;BME280;42705;50.326;18.772;2023-04-22T08:38:13;98355.00;;;15.35;37.20
56825;BME280;42705;50.326;18.772;2023-04-22T08:43:36;98353.05;;;15.46;36.93
56825;BME280;42705;50.326;18.772;2023-04-22T08:48:58;98353.36;;;15.58;36.43
56825;BME280;42705;50.326;18.772;2023-04-22T08:54:24;98351.60;;;15.67;36.25
56825;BME280;42705;50.326;18.772;2023-04-22T08:59:47;98348.48;;;15.78;36.11
56825;BME280;42705;50.326;18.772;2023-04-22T09:05:12;98342.66;;;15.87;35.67
56825;BME280;42705;50.326;18.772;2023-04-22T09:10:36;98340.33;;;15.97;35.16
56825;BME280;42705;50.326;18.772;2023-04-22T09:15:58;98340.52;;;16.06;35.19
56825;BME280;42705;50.326;18.772;2023-04-22T09:21:24;98335.46;;;16.15;35.20
56825;BME280;42705;50.326;18.772;2023-04-22T09:26:48;98335.95;;;16.26;34.81
56825;BME280;42705;50.326;18.772;2023-04-22T09:32:10;98336.42;;;16.38;34.72
56825;BME280;42705;50.326;18.772;2023-04-22T09:37:34;98337.52;;;16.52;34.55
56825;BME280;42705;50.326;18.772;2023-04-22T09:42:59;98337.31;;;16.61;34.05
56825;BME280;42705;50.326;18.772;2023-04-22T09:48:22;98328.05;;;16.68;33.84
56825;BME280;42705;50.326;18.772;2023-04-22T09:54:05;98317.17;;;16.75;33.26
56825;BME280;42705;50.326;18.772;2023-04-22T09:59:29;98312.17;;;16.83;32.32
56825;BME280;42705;50.326;18.772;2023-04-22T10:04:52;98306.45;;;16.92;32.86
56825;BME280;42705;50.326;18.772;2023-04-22T10:10:14;98311.96;;;17.06;33.04
56825;BME280;42705;50.326;18.772;2023-04-22T10:15:46;98306.86;;;17.19;32.79
56825;BME280;42705;50.326;18.772;2023-04-22T10:21:24;98303.22;;;17.33;32.56
56825;BME280;42705;50.326;18.772;2023-04-22T10:26:49;98291.11;;;17.43;32.37
56825;BME280;42705;50.326;18.772;2023-04-22T10:37:52;98282.75;;;17.59;31.84
56825;BME280;42705;50.326;18.772;2023-04-22T10:43:44;98271.46;;;17.69;31.86
56825;BME280;42705;50.326;18.772;2023-04-22T10:49:12;98272.09;;;17.82;32.15
56825;BME280;42705;50.326;18.772;2023-04-22T10:59:59;98266.08;;;18.13;31.32
56825;BME280;42705;50.326;18.772;2023-04-22T11:05:25;98264.70;;;18.24;30.85
56825;BME280;42705;50.326;18.772;2023-04-22T11:10:50;98255.73;;;18.34;30.71
56825;BME280;42705;50.326;18.772;2023-04-22T11:16:12;98246.05;;;18.54;31.30
56825;BME280;42705;50.326;18.772;2023-04-22T11:21:34;98240.86;;;18.74;30.89
56825;BME280;42705;50.326;18.772;2023-04-22T11:26:56;98237.88;;;18.92;30.66
56825;BME280;42705;50.326;18.772;2023-04-22T11:32:19;98231.70;;;19.07;30.30
56825;BME280;42705;50.326;18.772;2023-04-22T11:38:21;98229.82;;;19.27;30.35
56825;BME280;42705;50.326;18.772;2023-04-22T11:43:45;98228.58;;;19.48;29.92
56825;BME280;42705;50.326;18.772;2023-04-22T11:49:11;98223.48;;;19.62;29.46
56825;BME280;42705;50.326;18.772;2023-04-22T11:54:35;98224.65;;;19.81;29.39
56825;BME280;42705;50.326;18.772;2023-04-22T12:00:35;98218.48;;;20.02;29.13
56825;BME280;42705;50.326;18.772;2023-04-22T12:06:00;98212.62;;;20.24;29.37
56825;BME280;42705;50.326;18.772;2023-04-22T12:11:22;98208.84;;;20.54;29.33
56825;BME280;42705;50.326;18.772;2023-04-22T12:16:44;98208.52;;;20.75;28.67
56825;BME280;42705;50.326;18.772;2023-04-22T12:22:06;98202.88;;;20.94;28.28
56825;BME280;42705;50.326;18.772;2023-04-22T12:27:28;98195.29;;;21.15;28.10
56825;BME280;42705;50.326;18.772;2023-04-22T12:32:51;98188.12;;;21.40;27.69
56825;BME280;42705;50.326;18.772;2023-04-22T12:38:13;98182.21;;;21.59;27.52
56825;BME280;42705;50.326;18.772;2023-04-22T12:43:35;98174.76;;;21.81;27.78
56825;BME280;42705;50.326;18.772;2023-04-22T12:48:57;98172.80;;;22.08;27.63
56825;BME280;42705;50.326;18.772;2023-04-22T12:54:20;98169.30;;;22.42;27.52
56825;BME280;42705;50.326;18.772;2023-04-22T12:59:42;98164.08;;;22.96;27.18
56825;BME280;42705;50.326;18.772;2023-04-22T13:05:06;98158.78;;;25.13;25.36
56825;BME280;42705;50.326;18.772;2023-04-22T13:10:28;98150.00;;;28.60;23.06
56825;BME280;42705;50.326;18.772;2023-04-22T13:15:50;98145.47;;;31.40;21.29
56825;BME280;42705;50.326;18.772;2023-04-22T13:21:22;98144.30;;;34.35;18.55
56825;BME280;42705;50.326;18.772;2023-04-22T13:26:44;98135.23;;;36.95;17.33
56825;BME280;42705;50.326;18.772;2023-04-22T13:32:06;98125.58;;;39.40;15.72
56825;BME280;42705;50.326;18.772;2023-04-22T13:37:28;98123.44;;;41.50;14.02
56825;BME280;42705;50.326;18.772;2023-04-22T13:43:04;98117.64;;;43.14;12.32
56825;BME280;42705;50.326;18.772;2023-04-22T13:48:26;98112.52;;;43.40;11.40
56825;BME280;42705;50.326;18.772;2023-04-22T13:53:49;98098.58;;;43.26;10.91
56825;BME280;42705;50.326;18.772;2023-04-22T13:59:11;98103.27;;;43.48;10.03
56825;BME280;42705;50.326;18.772;2023-04-22T14:04:33;98104.64;;;43.20;9.91
56825;BME280;42705;50.326;18.772;2023-04-22T14:09:59;98098.77;;;42.81;9.96
56825;BME280;42705;50.326;18.772;2023-04-22T14:15:38;98091.79;;;43.17;10.01
56825;BME280;42705;50.326;18.772;2023-04-22T14:21:03;98091.02;;;44.40;9.75
56825;BME280;42705;50.326;18.772;2023-04-22T14:26:26;98089.56;;;44.50;9.19
56825;BME280;42705;50.326;18.772;2023-04-22T14:31:48;98082.23;;;43.68;8.48
56825;BME280;42705;50.326;18.772;2023-04-22T14:37:10;98079.35;;;43.66;8.84
56825;BME280;42705;50.326;18.772;2023-04-22T14:42:33;98079.20;;;44.76;8.82
56825;BME280;42705;50.326;18.772;2023-04-22T14:47:56;98080.19;;;44.70;8.48
56825;BME280;42705;50.326;18.772;2023-04-22T14:53:19;98078.39;;;44.20;8.17
56825;BME280;42705;50.326;18.772;2023-04-22T14:58:51;98078.89;;;42.44;7.97
56825;BME280;42705;50.326;18.772;2023-04-22T15:04:13;98074.06;;;41.48;8.30
56825;BME280;42705;50.326;18.772;2023-04-22T15:09:37;98067.91;;;40.72;8.75
56825;BME280;42705;50.326;18.772;2023-04-22T15:14:58;98065.33;;;40.81;8.88
56825;BME280;42705;50.326;18.772;2023-04-22T15:20:20;98063.74;;;41.26;9.27
56825;BME280;42705;50.326;18.772;2023-04-22T15:25:44;98061.48;;;40.86;9.26
56825;BME280;42705;50.326;18.772;2023-04-22T15:31:09;98059.25;;;40.98;9.28
56825;BME280;42705;50.326;18.772;2023-04-22T15:36:32;98056.25;;;41.25;9.18
56825;BME280;42705;50.326;18.772;2023-04-22T15:41:54;98055.37;;;41.41;9.07
56825;BME280;42705;50.326;18.772;2023-04-22T15:47:23;98060.56;;;40.88;9.21
56825;BME280;42705;50.326;18.772;2023-04-22T15:52:45;98059.27;;;40.14;9.29
56825;BME280;42705;50.326;18.772;2023-04-22T15:58:15;98059.36;;;39.03;9.72
56825;BME280;42705;50.326;18.772;2023-04-22T16:03:37;98058.02;;;38.46;9.93
56825;BME280;42705;50.326;18.772;2023-04-22T16:08:59;98057.53;;;36.70;9.97
56825;BME280;42705;50.326;18.772;2023-04-22T16:14:35;98053.50;;;36.01;10.49
56825;BME280;42705;50.326;18.772;2023-04-22T16:19:57;98051.77;;;35.43;10.64
56825;BME280;42705;50.326;18.772;2023-04-22T16:25:19;98044.81;;;34.63;11.01
56825;BME280;42705;50.326;18.772;2023-04-22T16:30:41;98045.42;;;33.99;11.43
56825;BME280;42705;50.326;18.772;2023-04-22T16:36:04;98047.95;;;33.22;11.52
56825;BME280;42705;50.326;18.772;2023-04-22T16:41:26;98045.84;;;32.23;12.41
56825;BME280;42705;50.326;18.772;2023-04-22T16:46:48;98042.38;;;32.06;12.66
56825;BME280;42705;50.326;18.772;2023-04-22T16:52:11;98041.90;;;31.40;12.58
56825;BME280;42705;50.326;18.772;2023-04-22T16:57:41;98036.85;;;30.36;12.83
56825;BME280;42705;50.326;18.772;2023-04-22T17:03:02;98033.15;;;28.93;13.40
56825;BME280;42705;50.326;18.772;2023-04-22T17:08:24;98038.84;;;27.28;13.98
56825;BME280;42705;50.326;18.772;2023-04-22T17:13:46;98041.60;;;26.29;14.92
56825;BME280;42705;50.326;18.772;2023-04-22T17:19:08;98042.00;;;25.76;15.49
56825;BME280;42705;50.326;18.772;2023-04-22T17:24:30;98043.27;;;25.38;15.81
56825;BME280;42705;50.326;18.772;2023-04-22T17:29:52;98043.75;;;24.98;16.71
56825;BME280;42705;50.326;18.772;2023-04-22T17:35:14;98042.54;;;24.67;16.86
56825;BME280;42705;50.326;18.772;2023-04-22T17:40:36;98045.80;;;24.16;17.05
56825;BME280;42705;50.326;18.772;2023-04-22T17:45:59;98049.65;;;23.55;17.34
56825;BME280;42705;50.326;18.772;2023-04-22T17:51:21;98056.06;;;22.86;17.68
56825;BME280;42705;50.326;18.772;2023-04-22T17:56:43;98056.09;;;22.17;18.09
56825;BME280;42705;50.326;18.772;2023-04-22T18:02:25;98058.65;;;21.69;18.69
56825;BME280;42705;50.326;18.772;2023-04-22T18:07:47;98059.17;;;21.35;19.46
56825;BME280;42705;50.326;18.772;2023-04-22T18:13:09;98063.73;;;21.06;19.96
56825;BME280;42705;50.326;18.772;2023-04-22T18:18:33;98064.98;;;20.78;20.16
56825;BME280;42705;50.326;18.772;2023-04-22T18:23:56;98072.47;;;20.51;20.55
56825;BME280;42705;50.326;18.772;2023-04-22T18:29:18;98076.17;;;20.26;21.24
56825;BME280;42705;50.326;18.772;2023-04-22T18:34:40;98084.21;;;20.01;21.41
56825;BME280;42705;50.326;18.772;2023-04-22T18:40:02;98086.52;;;19.75;21.95
56825;BME280;42705;50.326;18.772;2023-04-22T18:45:26;98086.37;;;19.50;22.20
56825;BME280;42705;50.326;18.772;2023-04-22T18:50:48;98088.22;;;19.28;22.44
56825;BME280;42705;50.326;18.772;2023-04-22T18:56:14;98086.39;;;19.07;22.89
56825;BME280;42705;50.326;18.772;2023-04-22T19:01:36;98089.66;;;18.88;23.11
56825;BME280;42705;50.326;18.772;2023-04-22T19:06:58;98087.55;;;18.67;23.67
56825;BME280;42705;50.326;18.772;2023-04-22T19:12:20;98092.67;;;18.44;24.39
56825;BME280;42705;50.326;18.772;2023-04-22T19:17:42;98099.52;;;18.18;25.41
56825;BME280;42705;50.326;18.772;2023-04-22T19:23:04;98097.98;;;17.95;26.01
56825;BME280;42705;50.326;18.772;2023-04-22T19:28:26;98101.98;;;17.74;26.57
56825;BME280;42705;50.326;18.772;2023-04-22T19:33:48;98107.30;;;17.57;26.96
56825;BME280;42705;50.326;18.772;2023-04-22T19:39:11;98103.44;;;17.43;27.47
56825;BME280;42705;50.326;18.772;2023-04-22T19:44:32;98102.06;;;17.31;27.60
56825;BME280;42705;50.326;18.772;2023-04-22T19:49:55;98102.52;;;17.19;27.95
56825;BME280;42705;50.326;18.772;2023-04-22T19:55:19;98098.66;;;17.09;28.19
56825;BME280;42705;50.326;18.772;2023-04-22T20:00:41;98103.10;;;16.97;28.60
56825;BME280;42705;50.326;18.772;2023-04-22T20:06:09;98101.38;;;16.86;28.79
56825;BME280;42705;50.326;18.772;2023-04-22T20:11:33;98101.73;;;16.76;28.84
56825;BME280;42705;50.326;18.772;2023-04-22T20:16:55;98097.44;;;16.67;29.26
56825;BME280;42705;50.326;18.772;2023-04-22T20:22:17;98100.52;;;16.57;29.35
56825;BME280;42705;50.326;18.772;2023-04-22T20:27:39;98098.28;;;16.49;29.46
56825;BME280;42705;50.326;18.772;2023-04-22T20:33:01;98092.84;;;16.40;29.52
56825;BME280;42705;50.326;18.772;2023-04-22T20:38:48;98094.28;;;16.32;29.66
56825;BME280;42705;50.326;18.772;2023-04-22T20:44:11;98091.35;;;16.26;29.76
56825;BME280;42705;50.326;18.772;2023-04-22T20:49:36;98089.75;;;16.19;30.20
56825;BME280;42705;50.326;18.772;2023-04-22T20:55:01;98091.14;;;16.12;30.28
56825;BME280;42705;50.326;18.772;2023-04-22T21:00:24;98089.52;;;16.04;30.41
56825;BME280;42705;50.326;18.772;2023-04-22T21:05:45;98089.09;;;15.98;30.66
56825;BME280;42705;50.326;18.772;2023-04-22T21:11:07;98088.30;;;15.88;30.73
56825;BME280;42705;50.326;18.772;2023-04-22T21:16:29;98091.08;;;15.77;30.87
56825;BME280;42705;50.326;18.772;2023-04-22T21:21:52;98093.08;;;15.69;31.24
56825;BME280;42705;50.326;18.772;2023-04-22T21:27:15;98089.20;;;15.62;31.43
56825;BME280;42705;50.326;18.772;2023-04-22T21:32:44;98094.06;;;15.55;31.72
56825;BME280;42705;50.326;18.772;2023-04-22T21:38:06;98098.49;;;15.47;32.05
56825;BME280;42705;50.326;18.772;2023-04-22T21:43:29;98099.36;;;15.40;32.33
56825;BME280;42705;50.326;18.772;2023-04-22T21:48:51;98100.78;;;15.32;32.57
56825;BME280;42705;50.326;18.772;2023-04-22T21:54:14;98100.27;;;15.26;32.69
56825;BME280;42705;50.326;18.772;2023-04-22T21:59:36;98105.80;;;15.18;32.77
56825;BME280;42705;50.326;18.772;2023-04-22T22:04:57;98101.44;;;15.08;33.12
56825;BME280;42705;50.326;18.772;2023-04-22T22:10:30;98099.15;;;15.00;33.25
56825;BME280;42705;50.326;18.772;2023-04-22T22:15:52;98093.88;;;14.94;33.55
56825;BME280;42705;50.326;18.772;2023-04-22T22:21:16;98093.56;;;14.87;33.91
56825;BME280;42705;50.326;18.772;2023-04-22T22:26:38;98090.13;;;14.81;34.13
56825;BME280;42705;50.326;18.772;2023-04-22T22:32:01;98092.36;;;14.75;34.23
56825;BME280;42705;50.326;18.772;2023-04-22T22:37:23;98092.76;;;14.68;34.17
56825;BME280;42705;50.326;18.772;2023-04-22T22:42:45;98090.63;;;14.62;34.27
56825;BME280;42705;50.326;18.772;2023-04-22T22:48:07;98089.52;;;14.56;34.38
56825;BME280;42705;50.326;18.772;2023-04-22T22:53:28;98091.55;;;14.49;34.71
56825;BME280;42705;50.326;18.772;2023-04-22T22:58:50;98089.95;;;14.43;34.91
56825;BME280;42705;50.326;18.772;2023-04-22T23:04:12;98095.08;;;14.36;34.82
56825;BME280;42705;50.326;18.772;2023-04-22T23:09:35;98094.70;;;14.27;35.00
56825;BME280;42705;50.326;18.772;2023-04-22T23:15:04;98098.23;;;14.17;35.13
56825;BME280;42705;50.326;18.772;2023-04-22T23:20:26;98099.23;;;14.10;35.43
56825;BME280;42705;50.326;18.772;2023-04-22T23:25:48;98101.09;;;13.98;35.05
56825;BME280;42705;50.326;18.772;2023-04-22T23:31:10;98103.12;;;13.82;35.32
56825;BME280;42705;50.326;18.772;2023-04-22T23:36:34;98096.14;;;13.71;35.70
56825;BME280;42705;50.326;18.772;2023-04-22T23:41:57;98090.83;;;13.65;36.16
56825;BME280;42705;50.326;18.772;2023-04-22T23:47:19;98093.46;;;13.60;36.52
56825;BME280;42705;50.326;18.772;2023-04-22T23:52:41;98091.02;;;13.55;36.83
56825;BME280;42705;50.326;18.772;2023-04-22T23:58:03;98090.05;;;13.51;37.03
